createdAt,value
2022-09-27T00:02:06.069Z,63.71
2022-09-27T00:04:32.489Z,63.50
2022-09-27T00:06:58.817Z,63.94
2022-09-27T00:09:25.149Z,64.19
2022-09-27T00:11:51.482Z,63.85
2022-09-27T00:14:17.831Z,63.57
2022-09-27T00:16:44.157Z,63.29
2022-09-27T00:19:10.528Z,63.39
2022-09-27T00:21:36.915Z,62.94
2022-09-27T00:24:03.239Z,63.34
2022-09-27T00:26:29.573Z,66.71
2022-09-27T00:28:55.914Z,66.67
2022-09-27T00:31:22.433Z,66.02
2022-09-27T00:33:48.838Z,66.29
2022-09-27T00:36:15.174Z,66.04
2022-09-27T00:38:41.514Z,65.90
2022-09-27T00:41:07.862Z,66.17
2022-09-27T00:43:34.215Z,65.28
2022-09-27T00:46:00.610Z,65.31
2022-09-27T00:48:27.026Z,66.12
2022-09-27T00:50:53.355Z,66.64
2022-09-27T00:53:19.690Z,66.19
2022-09-27T00:55:46.021Z,66.69
2022-09-27T00:58:12.345Z,66.77
2022-09-27T01:00:38.674Z,66.92
2022-09-27T01:03:05.059Z,66.22
2022-09-27T01:05:31.404Z,66.43
2022-09-27T01:07:57.737Z,67.62
2022-09-27T01:10:24.056Z,67.00
2022-09-27T01:12:50.393Z,67.56
2022-09-27T01:15:16.717Z,66.94
2022-09-27T01:17:43.073Z,66.53
2022-09-27T01:20:09.410Z,66.60
2022-09-27T01:22:35.745Z,66.69
2022-09-27T01:25:02.066Z,65.81
2022-09-27T01:27:28.403Z,65.71
2022-09-27T01:29:54.738Z,65.86
2022-09-27T01:32:21.068Z,65.85
2022-09-27T01:34:47.406Z,65.21
2022-09-27T01:37:13.733Z,66.17
2022-09-27T01:39:40.052Z,65.66
2022-09-27T01:42:07.668Z,65.49
2022-09-27T01:44:35.479Z,65.63
2022-09-27T01:47:01.814Z,65.41
2022-09-27T01:49:28.174Z,65.07
2022-09-27T01:51:54.497Z,65.58
2022-09-27T01:54:20.833Z,65.82
2022-09-27T01:56:47.188Z,66.23
2022-09-27T01:59:13.545Z,65.82
2022-09-27T02:01:40.060Z,65.56
2022-09-27T02:04:06.430Z,65.60
2022-09-27T02:06:32.778Z,65.94
2022-09-27T02:08:59.112Z,65.27
2022-09-27T02:11:25.436Z,65.86
2022-09-27T02:13:51.758Z,65.80
2022-09-27T02:16:18.133Z,65.50
2022-09-27T02:18:44.469Z,65.17
2022-09-27T02:21:10.805Z,65.38
2022-09-27T02:23:37.128Z,65.09
2022-09-27T02:26:03.457Z,64.86
2022-09-27T02:28:29.787Z,66.15
2022-09-27T02:30:56.210Z,65.39
2022-09-27T02:33:22.630Z,65.92
2022-09-27T02:35:48.947Z,66.76
2022-09-27T02:38:15.279Z,66.88
2022-09-27T02:40:41.672Z,65.83
2022-09-27T02:43:08.043Z,66.25
2022-09-27T02:45:34.369Z,66.18
2022-09-27T02:48:00.701Z,65.23
2022-09-27T02:50:27.030Z,64.80
2022-09-27T02:52:53.365Z,65.94
2022-09-27T02:55:19.693Z,65.07
2022-09-27T02:57:46.029Z,64.48
2022-09-27T03:00:12.362Z,64.85
2022-09-27T03:02:38.771Z,64.23
2022-09-27T03:05:05.184Z,64.10
2022-09-27T03:07:31.505Z,64.98
2022-09-27T03:09:57.830Z,63.77
2022-09-27T03:12:24.161Z,63.99
2022-09-27T03:14:50.501Z,64.40
2022-09-27T03:17:16.829Z,63.95
2022-09-27T03:19:43.156Z,64.99
2022-09-27T03:22:09.497Z,63.86
2022-09-27T03:24:35.831Z,63.60
2022-09-27T03:27:02.161Z,63.00
2022-09-27T03:29:28.491Z,63.19
2022-09-27T03:31:54.822Z,63.68
2022-09-27T03:34:21.150Z,63.35
2022-09-27T03:36:47.487Z,62.38
2022-09-27T03:39:13.835Z,61.70
2022-09-27T03:41:40.179Z,62.60
2022-09-27T03:44:06.509Z,62.72
2022-09-27T03:46:32.950Z,62.17
2022-09-27T03:48:59.539Z,61.71
2022-09-27T03:51:25.894Z,60.70
2022-09-27T03:53:52.234Z,60.47
2022-09-27T03:56:18.561Z,60.83
2022-09-27T03:58:44.893Z,60.67
2022-09-27T04:01:11.339Z,59.86
2022-09-27T04:03:37.708Z,59.88
2022-09-27T04:06:04.052Z,59.99
2022-09-27T04:08:30.392Z,59.97
2022-09-27T04:10:56.740Z,59.75
2022-09-27T04:13:23.081Z,60.26
2022-09-27T04:15:52.233Z,59.51
2022-09-27T04:18:18.907Z,59.32
2022-09-27T04:20:45.239Z,58.70
2022-09-27T04:23:11.570Z,59.03
2022-09-27T04:25:37.893Z,58.39
2022-09-27T04:28:04.225Z,58.29
2022-09-27T04:30:30.580Z,58.79
2022-09-27T04:32:56.938Z,59.40
2022-09-27T04:35:23.269Z,59.04
2022-09-27T04:37:49.591Z,58.55
2022-09-27T04:40:16.018Z,59.11
2022-09-27T04:42:42.396Z,58.26
2022-09-27T04:45:08.750Z,58.26
2022-09-27T04:47:35.070Z,59.43
2022-09-27T04:50:01.399Z,59.65
2022-09-27T04:52:27.718Z,58.24
2022-09-27T04:54:54.048Z,58.81
2022-09-27T04:57:20.364Z,57.82
2022-09-27T04:59:46.692Z,57.68
2022-09-27T05:02:13.068Z,57.43
2022-09-27T05:04:39.424Z,57.50
2022-09-27T05:07:05.752Z,57.02
2022-09-27T05:09:32.067Z,56.03
2022-09-27T05:11:58.395Z,56.72
2022-09-27T05:16:51.013Z,57.18
2022-09-27T05:19:17.460Z,56.52
2022-09-27T05:21:43.802Z,55.92
2022-09-27T05:24:10.126Z,57.00
2022-09-27T05:26:36.439Z,56.04
2022-09-27T05:29:02.763Z,55.61
2022-09-27T05:31:29.133Z,56.82
2022-09-27T05:33:55.494Z,56.58
2022-09-27T05:36:21.824Z,56.49
2022-09-27T05:38:48.165Z,57.10
2022-09-27T05:41:14.602Z,56.83
2022-09-27T05:43:40.953Z,55.74
2022-09-27T05:46:07.355Z,55.56
2022-09-27T05:48:33.705Z,55.93
2022-09-27T05:51:00.051Z,56.01
2022-09-27T05:53:26.381Z,54.71
2022-09-27T05:55:52.703Z,55.54
2022-09-27T05:58:19.041Z,55.04
2022-09-27T06:00:45.359Z,54.86
2022-09-27T06:03:11.710Z,56.05
2022-09-27T06:05:38.037Z,55.25
2022-09-27T06:08:04.366Z,55.46
2022-09-27T06:10:30.688Z,54.60
2022-09-27T06:12:57.017Z,55.21
2022-09-27T06:15:23.344Z,55.24
2022-09-27T06:17:49.684Z,55.28
2022-09-27T06:20:16.008Z,56.09
2022-09-27T06:22:42.347Z,55.84
2022-09-27T06:25:08.683Z,56.20
2022-09-27T06:27:35.015Z,56.52
2022-09-27T06:30:01.355Z,56.02
2022-09-27T06:32:27.709Z,55.38
2022-09-27T06:34:54.055Z,55.38
2022-09-27T06:37:20.397Z,55.21
2022-09-27T06:39:46.722Z,54.55
2022-09-27T06:42:13.074Z,56.51
2022-09-27T06:44:39.421Z,56.39
2022-09-27T06:47:05.744Z,56.87
2022-09-27T06:49:32.082Z,57.14
2022-09-27T06:51:58.425Z,56.48
2022-09-27T06:54:24.755Z,56.84
2022-09-27T06:56:51.078Z,55.98
2022-09-27T06:59:17.412Z,56.84
2022-09-27T07:01:43.841Z,56.79
2022-09-27T07:04:10.289Z,57.13
2022-09-27T07:06:36.999Z,56.90
2022-09-27T07:09:03.329Z,56.58
2022-09-27T07:11:29.671Z,56.24
2022-09-27T07:13:56.008Z,55.95
2022-09-27T07:16:22.396Z,55.81
2022-09-27T07:18:48.778Z,54.71
2022-09-27T07:21:15.113Z,55.41
2022-09-27T07:23:41.439Z,54.16
2022-09-27T07:26:07.773Z,54.09
2022-09-27T07:28:34.112Z,53.92
2022-09-27T07:31:00.519Z,54.23
2022-09-27T07:33:26.900Z,54.55
2022-09-27T07:35:53.234Z,54.53
2022-09-27T07:38:19.568Z,55.03
2022-09-27T07:40:45.964Z,55.31
2022-09-27T07:43:12.385Z,55.49
2022-09-27T07:45:38.813Z,55.95
2022-09-27T07:48:05.181Z,56.08
2022-09-27T07:50:31.520Z,56.90
2022-09-27T07:52:57.854Z,56.49
2022-09-27T07:55:24.209Z,56.46
2022-09-27T07:57:50.551Z,56.69
2022-09-27T08:00:16.903Z,54.60
2022-09-27T08:02:43.239Z,55.39
2022-09-27T08:05:09.575Z,54.54
2022-09-27T08:07:35.918Z,57.37
2022-09-27T08:10:02.252Z,56.40
2022-09-27T08:12:28.592Z,54.92
2022-09-27T08:14:54.921Z,56.93
2022-09-27T08:17:21.235Z,56.43
2022-09-27T08:19:47.556Z,56.83
2022-09-27T08:22:13.902Z,54.77
2022-09-27T08:24:40.219Z,53.80
2022-09-27T08:27:11.332Z,54.26
2022-09-27T08:29:38.198Z,54.17
2022-09-27T08:32:04.579Z,53.90
2022-09-27T08:34:30.954Z,52.45
2022-09-27T08:36:57.670Z,51.46
2022-09-27T08:39:24.012Z,51.49
2022-09-27T08:41:50.372Z,52.41
2022-09-27T08:44:16.802Z,53.05
2022-09-27T08:46:43.266Z,54.04
2022-09-27T08:49:09.595Z,53.14
2022-09-27T08:51:35.944Z,53.14
2022-09-27T08:54:02.395Z,54.81
2022-09-27T08:56:28.725Z,54.99
2022-09-27T08:58:55.063Z,53.16
2022-09-27T09:01:25.077Z,53.06
2022-09-27T09:03:54.307Z,53.32
2022-09-27T09:06:20.635Z,53.43
2022-09-27T09:08:50.827Z,54.13
2022-09-27T09:11:17.493Z,54.03
2022-09-27T09:13:43.822Z,51.44
2022-09-27T09:16:10.198Z,52.42
2022-09-27T09:18:36.536Z,51.67
2022-09-27T09:21:02.869Z,51.41
2022-09-27T09:23:29.192Z,49.48
2022-09-27T09:25:55.524Z,50.08
2022-09-27T09:28:21.855Z,48.75
2022-09-27T09:30:48.182Z,50.40
2022-09-27T09:33:16.501Z,48.30
2022-09-27T09:35:43.112Z,49.65
2022-09-27T09:38:09.453Z,49.15
2022-09-27T09:40:35.815Z,48.68
2022-09-27T09:43:02.210Z,49.20
2022-09-27T09:45:28.622Z,48.91
2022-09-27T09:47:55.046Z,50.07
2022-09-27T09:50:21.433Z,49.72
2022-09-27T09:52:47.824Z,48.41
2022-09-27T09:55:14.135Z,48.76
2022-09-27T09:57:40.469Z,46.92
2022-09-27T10:00:06.798Z,46.27
2022-09-27T10:02:33.155Z,47.08
2022-09-27T10:05:01.769Z,46.35
2022-09-27T10:07:31.663Z,44.98
2022-09-27T10:09:57.988Z,46.37
2022-09-27T10:12:24.324Z,45.79
2022-09-27T10:14:50.646Z,45.39
2022-09-27T10:17:16.970Z,45.25
2022-09-27T10:19:43.301Z,46.44
2022-09-27T10:22:09.641Z,46.94
2022-09-27T10:24:35.984Z,44.59
2022-09-27T10:27:02.320Z,45.03
2022-09-27T10:29:30.029Z,45.46
2022-09-27T10:31:58.949Z,45.10
2022-09-27T10:34:25.315Z,44.32
2022-09-27T10:36:51.664Z,44.33
2022-09-27T10:39:18.000Z,45.03
2022-09-27T10:41:44.326Z,44.86
2022-09-27T10:44:10.671Z,43.49
2022-09-27T10:46:37.000Z,44.63
2022-09-27T10:49:03.336Z,43.71
2022-09-27T10:51:29.676Z,43.59
2022-09-27T10:53:56.014Z,42.73
2022-09-27T10:56:22.379Z,43.28
2022-09-27T10:58:48.708Z,43.29
2022-09-27T11:01:15.074Z,42.96
2022-09-27T11:03:41.434Z,44.05
2022-09-27T11:06:07.778Z,43.60
2022-09-27T11:08:34.314Z,45.74
2022-09-27T11:11:00.677Z,44.39
2022-09-27T11:13:27.241Z,42.97
2022-09-27T11:15:53.630Z,42.90
2022-09-27T11:18:19.968Z,42.90
2022-09-27T11:20:46.301Z,42.80
2022-09-27T11:23:12.654Z,45.44
2022-09-27T11:25:39.005Z,43.51
2022-09-27T11:28:05.337Z,44.05
2022-09-27T11:30:31.668Z,45.17
2022-09-27T11:32:57.991Z,43.54
2022-09-27T11:35:24.308Z,41.56
2022-09-27T11:37:50.645Z,42.32
2022-09-27T11:40:17.026Z,41.48
2022-09-27T11:42:43.406Z,42.21
2022-09-27T11:47:56.071Z,43.67
2022-09-27T11:50:22.474Z,41.42
2022-09-27T11:52:48.799Z,41.92
2022-09-27T11:55:15.144Z,42.79
2022-09-27T11:57:41.474Z,43.31
2022-09-27T12:00:07.803Z,42.76
2022-09-27T12:02:34.265Z,42.77
2022-09-27T12:05:00.649Z,43.24
2022-09-27T12:07:26.999Z,43.70
2022-09-27T12:09:53.344Z,43.39
2022-09-27T12:12:19.673Z,42.93
2022-09-27T12:14:45.997Z,42.16
2022-09-27T12:17:12.332Z,42.94
2022-09-27T12:19:38.682Z,44.41
2022-09-27T12:22:05.013Z,44.36
2022-09-27T12:24:31.349Z,44.61
2022-09-27T12:26:57.746Z,45.44
2022-09-27T12:29:24.085Z,46.06
2022-09-27T12:31:50.426Z,46.78
2022-09-27T12:34:19.861Z,46.31
2022-09-27T12:36:46.587Z,45.08
2022-09-27T12:39:12.929Z,46.16
2022-09-27T12:41:39.256Z,45.38
2022-09-27T12:44:05.564Z,45.33
2022-09-27T12:46:31.992Z,44.84
2022-09-27T12:48:58.413Z,43.89
2022-09-27T12:51:24.745Z,44.01
2022-09-27T12:53:51.092Z,43.89
2022-09-27T12:56:17.420Z,45.18
2022-09-27T12:58:43.764Z,44.50
2022-09-27T13:01:10.136Z,44.15
2022-09-27T13:03:36.518Z,42.91
2022-09-27T13:06:02.853Z,44.38
2022-09-27T13:08:29.172Z,44.63
2022-09-27T13:10:55.499Z,43.61
2022-09-27T13:13:21.810Z,44.02
2022-09-27T13:15:48.216Z,42.29
2022-09-27T13:18:14.583Z,42.46
2022-09-27T13:20:40.911Z,43.79
2022-09-27T13:23:07.242Z,42.80
2022-09-27T13:25:33.564Z,42.32
2022-09-27T13:27:59.899Z,42.50
2022-09-27T13:30:26.240Z,42.51
2022-09-27T13:32:52.566Z,42.61
2022-09-27T13:35:18.884Z,43.47
2022-09-27T13:37:45.200Z,41.86
2022-09-27T13:40:11.580Z,43.58
2022-09-27T13:42:37.963Z,43.90
2022-09-27T13:45:04.298Z,43.41
2022-09-27T13:47:30.638Z,43.17
2022-09-27T13:49:56.960Z,45.01
2022-09-27T13:52:23.290Z,46.13
2022-09-27T13:54:49.605Z,46.56
2022-09-27T13:57:15.927Z,46.59
2022-09-27T13:59:42.258Z,45.21
2022-09-27T14:02:08.655Z,44.65
2022-09-27T14:04:35.015Z,45.06
2022-09-27T14:07:01.345Z,45.54
2022-09-27T14:09:27.671Z,44.68
2022-09-27T14:11:54.046Z,44.28
2022-09-27T14:14:20.364Z,44.62
2022-09-27T14:16:46.688Z,44.73
2022-09-27T14:19:13.004Z,43.58
2022-09-27T14:21:39.343Z,43.85
2022-09-27T14:24:05.702Z,45.34
2022-09-27T14:26:32.031Z,44.96
2022-09-27T14:28:58.363Z,44.95
2022-09-27T14:31:24.730Z,45.56
2022-09-27T14:33:51.071Z,44.52
2022-09-27T14:36:21.598Z,45.47
2022-09-27T14:38:49.915Z,45.86
2022-09-27T14:41:16.236Z,45.88
2022-09-27T14:43:42.561Z,46.01
2022-09-27T14:46:08.956Z,46.38
2022-09-27T14:48:35.300Z,47.78
2022-09-27T14:51:05.270Z,49.05
2022-09-27T14:53:32.605Z,48.04
2022-09-27T14:55:58.937Z,49.55
2022-09-27T14:58:45.924Z,49.70
2022-09-27T15:01:11.585Z,50.30
2022-09-27T15:03:42.375Z,50.44
2022-09-27T15:06:10.600Z,50.73
2022-09-27T15:08:36.937Z,51.44
2022-09-27T15:11:03.272Z,54.03
2022-09-27T15:13:29.602Z,55.27
2022-09-27T15:15:55.988Z,54.58
2022-09-27T15:18:22.339Z,55.45
2022-09-27T15:20:48.687Z,53.93
2022-09-27T15:23:15.005Z,54.55
2022-09-27T15:25:41.333Z,54.48
2022-09-27T15:28:07.653Z,52.99
2022-09-27T15:30:34.010Z,53.88
2022-09-27T15:33:00.351Z,53.60
2022-09-27T15:35:26.701Z,53.45
2022-09-27T15:37:53.051Z,52.80
2022-09-27T15:40:19.426Z,53.71
2022-09-27T15:42:45.809Z,52.90
2022-09-27T15:45:12.152Z,52.09
2022-09-27T15:47:38.483Z,53.97
2022-09-27T15:50:04.819Z,53.31
2022-09-27T15:52:31.149Z,53.81
2022-09-27T15:54:57.467Z,54.42
2022-09-27T15:57:24.059Z,54.25
2022-09-27T15:59:50.433Z,54.50
2022-09-27T16:02:16.884Z,53.75
2022-09-27T16:04:43.279Z,52.95
2022-09-27T16:07:09.610Z,53.53
2022-09-27T16:09:35.944Z,52.78
2022-09-27T16:12:02.273Z,52.52
2022-09-27T16:14:28.626Z,52.73
2022-09-27T16:16:55.005Z,53.08
2022-09-27T16:19:21.349Z,52.83
2022-09-27T16:21:47.691Z,54.42
2022-09-27T16:24:14.030Z,54.26
2022-09-27T16:26:40.362Z,52.97
2022-09-27T16:29:06.708Z,53.79
2022-09-27T16:31:33.107Z,55.03
2022-09-27T16:33:59.476Z,54.42
2022-09-27T16:36:25.915Z,55.03
2022-09-27T16:38:52.253Z,55.49
2022-09-27T16:41:18.586Z,57.45
2022-09-27T16:43:44.913Z,56.86
2022-09-27T16:46:11.274Z,56.25
2022-09-27T16:48:37.612Z,55.39
2022-09-27T16:51:03.928Z,55.40
2022-09-27T16:53:30.252Z,55.74
2022-09-27T16:55:56.576Z,55.70
2022-09-27T16:58:22.915Z,55.83
2022-09-27T17:00:49.396Z,55.88
2022-09-27T17:03:15.769Z,56.08
2022-09-27T17:05:42.121Z,55.87
2022-09-27T17:08:08.458Z,55.30
2022-09-27T17:10:34.816Z,55.92
2022-09-27T17:13:01.189Z,55.79
2022-09-27T17:15:27.525Z,56.35
2022-09-27T17:17:53.870Z,55.80
2022-09-27T17:20:20.197Z,56.75
2022-09-27T17:22:47.342Z,56.48
2022-09-27T17:25:13.669Z,56.89
2022-09-27T17:27:39.988Z,56.98
2022-09-27T17:30:06.327Z,56.82
2022-09-27T17:32:32.656Z,56.20
2022-09-27T17:34:59.000Z,56.81
2022-09-27T17:37:25.342Z,55.88
2022-09-27T17:39:51.682Z,57.95
2022-09-27T17:42:18.032Z,57.74
2022-09-27T17:44:44.361Z,57.81
2022-09-27T17:47:10.703Z,57.74
2022-09-27T17:49:37.025Z,57.25
2022-09-27T17:52:03.360Z,57.13
2022-09-27T17:54:29.704Z,56.98
2022-09-27T17:56:56.033Z,56.99
2022-09-27T17:59:22.393Z,57.25
2022-09-27T18:01:48.824Z,57.59
2022-09-27T18:04:15.266Z,56.34
2022-09-27T18:06:41.600Z,56.46
2022-09-27T18:09:07.929Z,56.62
2022-09-27T18:11:34.261Z,57.09
2022-09-27T18:14:00.795Z,57.11
2022-09-27T18:16:27.212Z,56.79
2022-09-27T18:18:53.562Z,56.03
2022-09-27T18:21:19.909Z,56.11
2022-09-27T18:23:46.245Z,57.02
2022-09-27T18:26:12.590Z,55.89
2022-09-27T18:28:38.924Z,56.45
2022-09-27T18:31:17.574Z,56.25
2022-09-27T18:33:43.885Z,56.35
2022-09-27T18:36:10.145Z,56.03
2022-09-27T18:38:36.480Z,56.04
2022-09-27T18:41:02.869Z,56.45
2022-09-27T18:43:29.242Z,55.82
2022-09-27T18:45:55.588Z,56.49
2022-09-27T18:48:21.929Z,56.24
2022-09-27T18:50:48.265Z,56.36
2022-09-27T18:53:14.597Z,56.16
2022-09-27T18:55:40.925Z,56.56
2022-09-27T18:58:07.291Z,56.35
2022-09-27T19:00:33.674Z,56.26
2022-09-27T19:03:00.054Z,55.91
2022-09-27T19:05:26.383Z,56.59
2022-09-27T19:07:52.731Z,56.72
2022-09-27T19:10:19.058Z,57.18
2022-09-27T19:12:45.396Z,56.95
2022-09-27T19:15:11.740Z,56.75
2022-09-27T19:17:38.070Z,56.84
2022-09-27T19:20:04.409Z,56.55
2022-09-27T19:22:30.746Z,57.00
2022-09-27T19:24:57.086Z,57.58
2022-09-27T19:27:23.435Z,57.91
2022-09-27T19:29:49.768Z,57.72
2022-09-27T19:32:17.176Z,57.68
2022-09-27T19:34:43.514Z,58.00
2022-09-27T19:37:09.852Z,57.53
2022-09-27T19:39:36.186Z,57.12
2022-09-27T19:42:02.531Z,57.63
2022-09-27T19:44:28.855Z,58.15
2022-09-27T19:46:55.300Z,57.57
2022-09-27T19:49:21.704Z,56.58
2022-09-27T19:51:48.042Z,57.06
2022-09-27T19:54:14.414Z,57.53
2022-09-27T19:56:40.745Z,57.58
2022-09-27T19:59:15.870Z,57.29
2022-09-27T20:01:42.328Z,56.93
2022-09-27T20:04:08.711Z,56.96
2022-09-27T20:06:35.052Z,57.13
2022-09-27T20:09:01.399Z,56.45
2022-09-27T20:11:27.736Z,57.03
2022-09-27T20:13:54.066Z,56.84
2022-09-27T20:16:20.531Z,57.13
2022-09-27T20:18:46.914Z,56.48
2022-09-27T20:21:13.276Z,56.53
2022-09-27T20:23:39.605Z,57.30
2022-09-27T20:26:05.941Z,56.28
2022-09-27T20:28:32.280Z,57.04
2022-09-27T20:30:58.648Z,56.79
2022-09-27T20:33:25.103Z,56.90
2022-09-27T20:35:51.450Z,56.33
2022-09-27T20:38:17.797Z,56.79
2022-09-27T20:40:44.188Z,56.26
2022-09-27T20:43:10.564Z,56.70
2022-09-27T20:45:36.903Z,56.19
2022-09-27T20:48:03.234Z,56.69
2022-09-27T20:50:29.583Z,57.30
2022-09-27T20:52:55.908Z,56.90
2022-09-27T20:55:22.224Z,57.83
2022-09-27T20:57:57.371Z,57.76
2022-09-27T21:00:24.192Z,57.91
2022-09-27T21:02:50.535Z,58.34
2022-09-27T21:05:16.874Z,59.07
2022-09-27T21:07:43.204Z,59.66
2022-09-27T21:10:09.534Z,59.83
2022-09-27T21:12:35.872Z,60.03
2022-09-27T21:15:02.208Z,58.26
2022-09-27T21:17:28.561Z,58.75
2022-09-27T21:19:54.890Z,58.75
2022-09-27T21:22:21.235Z,58.26
2022-09-27T21:24:47.586Z,57.52
2022-09-27T21:27:13.917Z,58.08
2022-09-27T21:29:40.241Z,58.53
2022-09-27T21:32:06.580Z,58.40
2022-09-27T21:34:32.904Z,58.53
2022-09-27T21:36:59.246Z,59.00
2022-09-27T21:39:25.572Z,58.83
2022-09-27T21:41:51.964Z,59.37
2022-09-27T21:44:18.293Z,60.12
2022-09-27T21:46:44.705Z,60.01
2022-09-27T21:49:11.118Z,60.45
2022-09-27T21:51:37.511Z,60.53
2022-09-27T21:54:03.854Z,60.96
2022-09-27T21:56:30.184Z,60.24
2022-09-27T21:58:56.519Z,60.65
2022-09-27T22:01:22.911Z,60.97
2022-09-27T22:03:49.302Z,60.72
2022-09-27T22:06:15.651Z,61.25
2022-09-27T22:08:41.997Z,60.39
2022-09-27T22:11:08.338Z,60.51
2022-09-27T22:13:34.689Z,61.25
2022-09-27T22:16:01.110Z,61.34
2022-09-27T22:18:27.488Z,61.19
2022-09-27T22:20:53.835Z,61.21
2022-09-27T22:23:20.179Z,61.25
2022-09-27T22:25:46.533Z,61.71
2022-09-27T22:28:12.871Z,61.49
2022-09-27T22:30:39.215Z,60.91
2022-09-27T22:33:05.556Z,61.00
2022-09-27T22:35:31.896Z,60.35
2022-09-27T22:37:58.237Z,60.15
2022-09-27T22:40:24.638Z,59.79
2022-09-27T22:42:50.980Z,60.01
2022-09-27T22:45:17.320Z,60.76
2022-09-27T22:47:43.654Z,60.44
2022-09-27T22:50:09.984Z,61.26
2022-09-27T22:52:36.328Z,61.76
2022-09-27T22:55:02.671Z,61.05
2022-09-27T22:57:29.029Z,60.73
2022-09-27T22:59:55.357Z,60.98
2022-09-27T23:02:21.696Z,61.34
2022-09-27T23:04:48.037Z,61.38
2022-09-27T23:07:14.375Z,61.19
2022-09-27T23:09:40.721Z,59.88
2022-09-27T23:12:07.066Z,60.30
2022-09-27T23:14:33.398Z,61.09
2022-09-27T23:16:59.758Z,60.60
2022-09-27T23:19:26.104Z,60.79
2022-09-27T23:21:52.435Z,60.94
2022-09-27T23:24:18.811Z,60.20
2022-09-27T23:26:45.148Z,61.49
2022-09-27T23:29:11.476Z,61.17
2022-09-27T23:31:37.850Z,61.19
2022-09-27T23:34:04.225Z,61.67
2022-09-27T23:36:30.564Z,61.68
2022-09-27T23:38:56.903Z,60.95
2022-09-27T23:41:23.233Z,60.85
2022-09-27T23:43:49.576Z,60.26
2022-09-27T23:46:15.937Z,60.10
2022-09-27T23:48:42.321Z,60.75
2022-09-27T23:51:08.667Z,60.51
2022-09-27T23:53:35.001Z,60.02
2022-09-27T23:56:01.337Z,61.48
2022-09-27T23:58:27.667Z,60.91
